createdAt,value
2022-10-19T00:01:07.257Z,2.55
2022-10-19T00:06:15.114Z,2.53
2022-10-19T00:08:43.518Z,2.15
2022-10-19T00:11:11.792Z,2.55
2022-10-19T00:13:39.626Z,2.72
2022-10-19T00:16:13.618Z,3.03
2022-10-19T00:18:43.412Z,3.10
2022-10-19T00:21:13.932Z,2.80
2022-10-19T00:23:42.177Z,2.30
2022-10-19T00:26:09.928Z,2.40
2022-10-19T00:28:37.746Z,2.75
2022-10-19T00:31:11.911Z,3.03
2022-10-19T00:33:40.199Z,2.50
2022-10-19T00:36:18.404Z,3.60
2022-10-19T00:38:46.459Z,2.47
2022-10-19T00:41:14.698Z,3.20
2022-10-19T00:44:00.321Z,3.22
2022-10-19T00:46:30.480Z,2.65
2022-10-19T00:49:03.276Z,3.75
2022-10-19T00:51:33.864Z,3.45
2022-10-19T00:54:03.159Z,2.85
2022-10-19T00:56:30.633Z,3.58
2022-10-19T00:58:58.326Z,3.33
2022-10-19T01:01:27.486Z,2.47
2022-10-19T01:03:55.000Z,4.15
2022-10-19T01:06:23.543Z,3.62
2022-10-19T01:08:50.966Z,3.15
2022-10-19T01:11:44.534Z,2.20
2022-10-19T01:14:33.290Z,2.47
2022-10-19T01:17:18.514Z,3.00
2022-10-19T01:20:10.471Z,2.95
2022-10-19T01:22:50.114Z,3.67
2022-10-19T01:25:37.829Z,2.47
2022-10-19T01:28:14.454Z,3.00
2022-10-19T01:31:25.796Z,3.47
2022-10-19T01:37:01.063Z,2.92
2022-10-19T01:39:49.126Z,3.47
2022-10-19T01:42:31.508Z,3.58
2022-10-19T01:45:05.095Z,3.83
2022-10-19T01:47:38.585Z,2.75
2022-10-19T01:50:16.512Z,3.08
2022-10-19T01:52:44.542Z,3.35
2022-10-19T01:55:13.687Z,3.47
2022-10-19T01:57:46.182Z,3.80
2022-10-19T02:00:15.198Z,3.72
2022-10-19T02:02:49.833Z,4.10
2022-10-19T02:05:21.070Z,5.35
2022-10-19T02:07:56.180Z,5.03
2022-10-19T02:10:25.136Z,4.20
2022-10-19T02:12:53.801Z,2.67
2022-10-19T02:15:23.549Z,3.62
2022-10-19T02:17:53.357Z,3.90
2022-10-19T02:20:21.339Z,4.28
2022-10-19T02:22:48.824Z,4.45
2022-10-19T02:25:16.669Z,4.00
2022-10-19T02:27:44.227Z,3.72
2022-10-19T02:30:13.452Z,3.90
2022-10-19T02:32:41.900Z,3.83
2022-10-19T02:35:10.358Z,3.25
2022-10-19T02:37:38.100Z,3.95
2022-10-19T02:40:06.416Z,3.95
2022-10-19T02:42:44.101Z,4.28
2022-10-19T02:45:27.996Z,4.70
2022-10-19T02:48:01.065Z,3.97
2022-10-19T02:50:28.824Z,4.72
2022-10-19T02:52:58.749Z,5.93
2022-10-19T02:55:26.252Z,4.35
2022-10-19T02:57:54.737Z,4.30
2022-10-19T03:00:22.141Z,2.80
2022-10-19T03:02:49.575Z,4.35
2022-10-19T03:05:17.359Z,4.47
2022-10-19T03:07:44.865Z,4.37
2022-10-19T03:10:12.303Z,4.60
2022-10-19T03:12:39.978Z,4.87
2022-10-19T03:15:07.949Z,4.78
2022-10-19T03:17:36.005Z,6.15
2022-10-19T03:20:04.392Z,5.68
2022-10-19T03:22:31.850Z,5.05
2022-10-19T03:24:59.244Z,7.32
2022-10-19T03:27:26.895Z,6.05
2022-10-19T03:29:54.302Z,5.20
2022-10-19T03:32:21.701Z,4.78
2022-10-19T03:34:49.438Z,7.20
2022-10-19T03:37:16.876Z,5.78
2022-10-19T03:39:44.328Z,5.68
2022-10-19T03:42:12.066Z,3.75
2022-10-19T03:44:39.492Z,6.25
2022-10-19T03:47:06.866Z,6.18
2022-10-19T03:49:36.814Z,7.57
2022-10-19T03:52:06.933Z,4.37
2022-10-19T03:54:34.633Z,3.80
2022-10-19T03:57:02.028Z,5.87
2022-10-19T03:59:29.510Z,5.28
2022-10-19T04:01:57.143Z,6.97
2022-10-19T04:04:24.878Z,5.35
2022-10-19T04:06:53.913Z,5.78
2022-10-19T04:09:22.737Z,4.65
2022-10-19T04:11:50.574Z,5.10
2022-10-19T04:14:31.621Z,6.32
2022-10-19T04:17:04.217Z,4.80
2022-10-19T04:19:31.807Z,5.37
2022-10-19T04:21:59.271Z,5.85
2022-10-19T04:24:27.187Z,5.15
2022-10-19T04:26:55.869Z,5.53
2022-10-19T04:29:29.409Z,5.95
2022-10-19T04:31:59.172Z,5.32
2022-10-19T04:34:26.618Z,5.00
2022-10-19T04:36:54.171Z,5.32
2022-10-19T04:39:21.851Z,5.57
2022-10-19T04:41:49.254Z,6.87
2022-10-19T04:44:16.680Z,5.72
2022-10-19T04:46:44.355Z,4.30
2022-10-19T04:49:14.146Z,5.18
2022-10-19T04:51:45.432Z,3.70
2022-10-19T04:54:12.863Z,4.80
2022-10-19T04:56:40.485Z,5.97
2022-10-19T04:59:09.179Z,4.25
2022-10-19T05:01:36.821Z,4.22
2022-10-19T05:04:04.340Z,4.70
2022-10-19T05:06:32.099Z,5.37
2022-10-19T05:08:59.893Z,5.50
2022-10-19T05:11:27.605Z,4.43
2022-10-19T05:13:56.842Z,5.53
2022-10-19T05:16:24.577Z,5.95
2022-10-19T05:18:56.197Z,5.57
2022-10-19T05:21:23.942Z,4.57
2022-10-19T05:23:52.675Z,4.07
2022-10-19T05:26:25.027Z,5.12
2022-10-19T05:28:56.616Z,5.75
2022-10-19T05:31:26.375Z,5.72
2022-10-19T05:33:56.134Z,6.55
2022-10-19T05:36:26.304Z,4.40
2022-10-19T05:38:56.818Z,3.67
2022-10-19T05:41:26.126Z,5.37
2022-10-19T05:43:56.259Z,5.35
2022-10-19T05:46:25.195Z,5.78
2022-10-19T05:48:52.643Z,5.65
2022-10-19T05:51:21.947Z,6.20
2022-10-19T05:53:49.666Z,5.93
2022-10-19T05:56:20.201Z,5.80
2022-10-19T05:58:48.759Z,3.60
2022-10-19T06:01:19.001Z,4.57
2022-10-19T06:03:47.889Z,7.40
2022-10-19T06:06:15.368Z,5.47
2022-10-19T06:08:42.840Z,6.32
2022-10-19T06:11:12.770Z,5.07
2022-10-19T06:13:41.694Z,5.37
2022-10-19T06:16:10.053Z,6.18
2022-10-19T06:18:38.334Z,4.43
2022-10-19T06:21:07.772Z,5.87
2022-10-19T06:23:35.608Z,5.60
2022-10-19T06:26:05.664Z,3.45
2022-10-19T06:28:33.767Z,5.15
2022-10-19T06:31:01.438Z,4.55
2022-10-19T06:33:30.096Z,5.90
2022-10-19T06:36:08.636Z,5.90
2022-10-19T06:38:36.569Z,7.30
2022-10-19T06:41:04.211Z,4.12
2022-10-19T06:43:31.722Z,4.53
2022-10-19T06:45:59.403Z,5.75
2022-10-19T06:48:26.821Z,4.75
2022-10-19T06:50:58.141Z,4.47
2022-10-19T06:53:26.124Z,3.72
2022-10-19T06:55:53.516Z,5.43
2022-10-19T06:58:20.910Z,4.72
2022-10-19T07:00:57.705Z,6.28
2022-10-19T07:03:26.005Z,4.57
2022-10-19T07:05:55.325Z,4.15
2022-10-19T07:08:23.581Z,3.70
2022-10-19T07:10:53.173Z,4.00
2022-10-19T07:13:21.645Z,5.07
2022-10-19T07:15:49.660Z,4.05
2022-10-19T07:18:17.124Z,6.00
2022-10-19T07:20:54.296Z,4.87
2022-10-19T07:23:21.672Z,3.28
2022-10-19T07:25:49.480Z,4.95
2022-10-19T07:28:16.858Z,4.15
2022-10-19T07:30:44.310Z,4.20
2022-10-19T07:33:12.116Z,6.37
2022-10-19T07:35:39.560Z,3.30
2022-10-19T07:38:06.989Z,4.47
2022-10-19T07:40:35.197Z,4.30
2022-10-19T07:43:02.895Z,4.50
2022-10-19T07:45:30.413Z,4.57
2022-10-19T07:47:59.073Z,3.08
2022-10-19T07:50:27.747Z,3.92
2022-10-19T07:52:55.437Z,3.45
2022-10-19T07:55:23.098Z,4.78
2022-10-19T07:57:50.532Z,3.97
2022-10-19T08:00:18.070Z,4.07
2022-10-19T08:02:57.737Z,3.10
2022-10-19T08:05:33.925Z,3.45
2022-10-19T08:08:01.603Z,3.28
2022-10-19T08:10:29.129Z,3.37
2022-10-19T08:12:56.583Z,4.10
2022-10-19T08:15:26.148Z,3.83
2022-10-19T08:17:53.550Z,2.67
2022-10-19T08:20:20.966Z,2.87
2022-10-19T08:22:48.697Z,1.95
2022-10-19T08:25:16.083Z,3.45
2022-10-19T08:27:43.531Z,4.12
2022-10-19T08:30:11.457Z,2.53
2022-10-19T08:32:38.943Z,3.33
2022-10-19T08:35:09.990Z,2.60
2022-10-19T08:37:44.812Z,2.72
2022-10-19T08:40:19.382Z,2.78
2022-10-19T08:43:04.981Z,3.15
2022-10-19T08:45:34.926Z,2.42
2022-10-19T08:48:28.117Z,3.30
2022-10-19T08:50:57.212Z,2.58
2022-10-19T08:53:33.576Z,2.58
2022-10-19T08:56:50.623Z,3.30
2022-10-19T08:59:57.492Z,3.55
2022-10-19T09:02:34.670Z,2.58
2022-10-19T09:05:44.476Z,1.98
2022-10-19T09:08:17.449Z,2.03
2022-10-19T09:10:49.435Z,2.80
2022-10-19T09:13:23.260Z,2.20
2022-10-19T09:15:52.069Z,2.95
2022-10-19T09:18:23.597Z,2.40
2022-10-19T09:20:58.122Z,2.72
2022-10-19T09:23:39.497Z,2.07
2022-10-19T09:26:18.650Z,1.77
2022-10-19T09:28:59.085Z,1.08
2022-10-19T09:31:39.585Z,2.33
2022-10-19T09:34:14.031Z,3.15
2022-10-19T09:36:50.398Z,2.17
2022-10-19T09:39:18.825Z,2.08
2022-10-19T09:42:18.927Z,2.20
2022-10-19T09:44:46.337Z,2.53
2022-10-19T09:47:37.140Z,2.15
2022-10-19T09:50:14.030Z,1.58
2022-10-19T09:52:43.117Z,2.47
2022-10-19T09:55:13.474Z,1.75
2022-10-19T09:57:44.732Z,2.40
2022-10-19T10:00:25.587Z,2.33
2022-10-19T10:02:55.225Z,1.12
2022-10-19T10:05:34.443Z,1.87
2022-10-19T10:08:03.477Z,2.28
2022-10-19T10:10:37.452Z,2.08
2022-10-19T10:13:05.727Z,1.60
2022-10-19T10:15:43.428Z,1.33
2022-10-19T10:18:16.138Z,1.60
2022-10-19T10:23:28.130Z,1.80
2022-10-19T10:25:57.339Z,1.42
2022-10-19T10:28:27.241Z,1.73
2022-10-19T10:31:00.247Z,1.87
2022-10-19T10:33:45.680Z,1.62
2022-10-19T10:38:45.296Z,1.62
2022-10-19T10:41:17.613Z,2.50
2022-10-19T10:43:54.693Z,1.75
2022-10-19T10:46:29.106Z,1.37
2022-10-19T10:48:58.877Z,2.67
2022-10-19T10:51:40.643Z,1.33
2022-10-19T10:54:27.045Z,2.37
2022-10-19T10:57:07.034Z,1.27
2022-10-19T10:59:43.073Z,1.00
2022-10-19T11:02:36.154Z,0.95
2022-10-19T11:05:28.974Z,0.90
2022-10-19T11:08:25.392Z,0.80
2022-10-19T11:11:02.326Z,0.62
2022-10-19T11:14:15.611Z,1.00
2022-10-19T11:16:45.393Z,1.48
2022-10-19T11:19:19.047Z,1.65
2022-10-19T11:22:00.984Z,1.27
2022-10-19T11:24:38.462Z,1.35
2022-10-19T11:27:28.494Z,1.37
2022-10-19T11:30:12.590Z,1.17
2022-10-19T11:33:02.168Z,1.25
2022-10-19T11:35:32.498Z,1.02
2022-10-19T11:38:20.693Z,1.48
2022-10-19T11:41:17.331Z,1.87
2022-10-19T11:43:51.478Z,1.85
2022-10-19T11:46:37.138Z,1.90
2022-10-19T11:49:23.359Z,1.23
2022-10-19T11:51:51.967Z,0.88
2022-10-19T11:54:41.618Z,1.17
2022-10-19T11:57:12.033Z,0.90
2022-10-19T11:59:52.815Z,1.50
2022-10-19T12:02:42.665Z,0.85
2022-10-19T12:05:13.055Z,1.37
2022-10-19T12:07:46.561Z,0.82
2022-10-19T12:10:22.366Z,1.30
2022-10-19T12:12:52.794Z,0.88
2022-10-19T12:15:21.665Z,1.40
2022-10-19T12:17:51.093Z,1.20
2022-10-19T12:20:24.837Z,1.62
2022-10-19T12:22:52.604Z,1.42
2022-10-19T12:25:20.256Z,1.42
2022-10-19T12:27:50.066Z,1.10
2022-10-19T12:30:22.911Z,1.02
2022-10-19T12:33:15.296Z,1.08
2022-10-19T12:36:01.449Z,1.05
2022-10-19T12:38:44.016Z,1.05
2022-10-19T12:41:22.902Z,1.55
2022-10-19T12:44:14.906Z,1.45
2022-10-19T12:47:00.850Z,1.58
2022-10-19T12:49:45.459Z,1.77
2022-10-19T12:52:14.364Z,1.40
2022-10-19T12:54:42.965Z,1.15
2022-10-19T12:57:28.462Z,1.00
2022-10-19T13:00:02.239Z,1.30
2022-10-19T13:05:06.234Z,1.20
2022-10-19T13:07:35.321Z,1.33
2022-10-19T13:10:05.892Z,1.45
2022-10-19T13:12:45.785Z,2.03
2022-10-19T13:15:35.881Z,2.67
2022-10-19T13:18:05.907Z,1.42
2022-10-19T13:20:33.859Z,2.00
2022-10-19T13:23:01.444Z,1.90
2022-10-19T13:25:36.339Z,2.17
2022-10-19T13:28:06.639Z,1.48
2022-10-19T13:30:41.791Z,1.90
2022-10-19T13:33:31.583Z,1.77
2022-10-19T13:35:59.249Z,1.15
2022-10-19T13:38:31.829Z,1.70
2022-10-19T13:41:14.798Z,1.65
2022-10-19T13:44:03.757Z,1.87
2022-10-19T13:46:31.391Z,2.15
2022-10-19T13:49:01.675Z,2.03
2022-10-19T13:51:45.361Z,1.27
2022-10-19T13:54:28.007Z,1.83
2022-10-19T13:57:03.805Z,1.77
2022-10-19T13:59:51.535Z,2.10
2022-10-19T14:03:00.708Z,2.12
2022-10-19T14:06:05.925Z,2.30
2022-10-19T14:08:52.061Z,1.83
2022-10-19T14:11:34.269Z,3.87
2022-10-19T14:14:20.403Z,1.77
2022-10-19T14:16:52.778Z,1.98
2022-10-19T14:19:30.370Z,2.22
2022-10-19T14:22:01.324Z,1.98
2022-10-19T14:24:34.538Z,1.83
2022-10-19T14:27:04.439Z,1.95
2022-10-19T14:29:37.308Z,1.33
2022-10-19T14:32:05.108Z,1.70
2022-10-19T14:34:32.572Z,2.25
2022-10-19T14:37:00.181Z,1.75
2022-10-19T14:39:34.069Z,1.83
2022-10-19T14:42:06.504Z,2.25
2022-10-19T14:44:44.206Z,1.75
2022-10-19T14:47:27.261Z,3.22
2022-10-19T14:49:55.023Z,1.55
2022-10-19T14:52:32.783Z,2.42
2022-10-19T14:55:02.106Z,1.95
2022-10-19T14:57:33.182Z,2.28
2022-10-19T15:00:22.418Z,1.45
2022-10-19T15:03:00.166Z,1.45
2022-10-19T15:05:32.250Z,1.87
2022-10-19T15:08:11.235Z,1.83
2022-10-19T15:10:43.573Z,1.98
2022-10-19T15:13:34.864Z,1.73
2022-10-19T15:16:02.613Z,2.30
2022-10-19T15:18:48.857Z,1.42
2022-10-19T15:21:21.215Z,1.85
2022-10-19T15:23:50.843Z,2.00
2022-10-19T15:26:26.849Z,1.70
2022-10-19T15:28:56.093Z,1.58
2022-10-19T15:31:28.694Z,2.25
2022-10-19T15:34:00.818Z,1.98
2022-10-19T15:36:30.253Z,1.55
2022-10-19T15:39:06.162Z,1.77
2022-10-19T15:41:45.403Z,1.77
2022-10-19T15:44:34.259Z,2.22
2022-10-19T15:47:20.191Z,1.75
2022-10-19T15:52:27.582Z,1.90
2022-10-19T15:54:57.409Z,1.60
2022-10-19T15:57:32.408Z,1.33
2022-10-19T16:00:21.908Z,1.92
2022-10-19T16:02:49.620Z,1.65
2022-10-19T16:05:17.447Z,1.77
2022-10-19T16:07:45.243Z,1.27
2022-10-19T16:10:24.655Z,1.60
2022-10-19T16:12:52.488Z,1.15
2022-10-19T16:15:22.512Z,1.35
2022-10-19T16:17:58.527Z,1.75
2022-10-19T16:20:28.503Z,1.23
2022-10-19T16:22:56.744Z,1.48
2022-10-19T16:25:24.629Z,1.55
2022-10-19T16:27:52.484Z,2.35
2022-10-19T16:30:20.310Z,2.50
2022-10-19T16:32:48.636Z,1.58
2022-10-19T16:35:16.658Z,2.53
2022-10-19T16:37:44.178Z,2.25
2022-10-19T16:40:11.886Z,2.47
2022-10-19T16:42:39.740Z,1.55
2022-10-19T16:45:07.847Z,1.02
2022-10-19T16:47:35.298Z,1.40
2022-10-19T16:50:04.922Z,2.10
2022-10-19T16:52:33.337Z,1.85
2022-10-19T16:55:01.469Z,3.00
2022-10-19T16:57:29.358Z,1.58
2022-10-19T16:59:57.073Z,2.30
2022-10-19T17:02:24.855Z,2.53
2022-10-19T17:04:53.135Z,1.60
2022-10-19T17:07:20.751Z,1.67
2022-10-19T17:09:52.182Z,2.53
2022-10-19T17:12:22.439Z,1.83
2022-10-19T17:14:51.313Z,1.55
2022-10-19T17:17:19.393Z,1.73
2022-10-19T17:19:48.311Z,1.98
2022-10-19T17:22:15.896Z,2.25
2022-10-19T17:24:46.251Z,4.70
2022-10-19T17:27:14.165Z,1.50
2022-10-19T17:29:41.868Z,1.75
2022-10-19T17:32:09.652Z,1.52
2022-10-19T17:34:37.521Z,1.45
2022-10-19T17:37:05.518Z,1.83
2022-10-19T17:39:33.209Z,2.10
2022-10-19T17:42:03.294Z,1.70
2022-10-19T17:44:31.560Z,1.58
2022-10-19T17:47:01.320Z,1.77
2022-10-19T17:49:30.034Z,2.00
2022-10-19T17:51:58.002Z,2.45
2022-10-19T17:54:25.766Z,2.60
2022-10-19T17:56:53.725Z,1.50
2022-10-19T17:59:34.838Z,1.55
2022-10-19T18:02:10.971Z,1.40
2022-10-19T18:04:38.919Z,1.65
2022-10-19T18:07:06.675Z,1.60
2022-10-19T18:09:34.273Z,1.27
2022-10-19T18:12:04.842Z,2.00
2022-10-19T18:14:35.012Z,1.58
2022-10-19T18:17:03.960Z,2.05
2022-10-19T18:19:32.005Z,1.65
2022-10-19T18:22:00.240Z,2.03
2022-10-19T18:24:28.086Z,1.50
2022-10-19T18:26:55.835Z,1.85
2022-10-19T18:29:25.395Z,1.58
2022-10-19T18:31:53.633Z,1.58
2022-10-19T18:34:23.786Z,0.90
2022-10-19T18:36:51.981Z,0.90
2022-10-19T18:39:21.085Z,2.12
2022-10-19T18:41:54.815Z,1.73
2022-10-19T18:44:27.265Z,1.65
2022-10-19T18:46:56.941Z,1.85
2022-10-19T18:49:25.628Z,1.48
2022-10-19T18:51:55.797Z,1.73
2022-10-19T18:54:27.833Z,7.15
2022-10-19T18:56:56.024Z,1.80
2022-10-19T18:59:24.029Z,1.00
2022-10-19T19:01:52.095Z,1.87
2022-10-19T19:04:20.042Z,1.85
2022-10-19T19:06:47.597Z,1.40
2022-10-19T19:09:15.365Z,0.62
2022-10-19T19:11:43.393Z,1.40
2022-10-19T19:14:17.828Z,1.15
2022-10-19T19:16:46.235Z,1.47
2022-10-19T19:19:15.006Z,1.92
2022-10-19T19:21:44.469Z,1.12
2022-10-19T19:24:15.467Z,1.35
2022-10-19T19:26:48.325Z,1.75
2022-10-19T19:29:16.830Z,1.70
2022-10-19T19:31:44.580Z,1.77
2022-10-19T19:34:12.404Z,1.85
2022-10-19T19:36:48.086Z,1.73
2022-10-19T19:39:19.428Z,1.67
2022-10-19T19:41:48.798Z,1.10
2022-10-19T19:44:16.913Z,2.15
2022-10-19T19:46:44.568Z,1.00
2022-10-19T19:49:13.260Z,2.53
2022-10-19T19:51:41.775Z,1.83
2022-10-19T19:54:09.922Z,0.85
2022-10-19T19:56:39.525Z,1.83
2022-10-19T19:59:07.823Z,1.92
2022-10-19T20:01:37.332Z,1.23
2022-10-19T20:04:06.245Z,1.67
2022-10-19T20:06:35.500Z,1.37
2022-10-19T20:09:04.929Z,1.98
2022-10-19T20:11:33.049Z,2.83
2022-10-19T20:14:00.750Z,1.40
2022-10-19T20:16:32.067Z,1.65
2022-10-19T20:19:05.461Z,2.08
2022-10-19T20:21:33.776Z,1.65
2022-10-19T20:24:01.921Z,1.15
2022-10-19T20:26:30.054Z,2.17
2022-10-19T20:28:58.233Z,1.10
2022-10-19T20:33:59.664Z,1.00
2022-10-19T20:36:27.864Z,1.73
2022-10-19T20:38:57.623Z,1.33
2022-10-19T20:41:28.115Z,1.67
2022-10-19T20:43:56.191Z,2.37
2022-10-19T20:46:26.013Z,1.65
2022-10-19T20:48:59.627Z,1.30
2022-10-19T20:51:33.043Z,1.65
2022-10-19T20:54:01.937Z,1.33
2022-10-19T20:56:32.856Z,1.40
2022-10-19T21:01:33.776Z,2.40
2022-10-19T21:04:04.661Z,1.85
2022-10-19T21:06:34.748Z,1.23
2022-10-19T21:09:02.318Z,1.25
2022-10-19T21:11:32.574Z,1.70
2022-10-19T21:14:05.506Z,1.40
2022-10-19T21:16:37.721Z,1.75
2022-10-19T21:19:13.654Z,1.67
2022-10-19T21:21:43.975Z,2.00
2022-10-19T21:24:20.420Z,1.27
2022-10-19T21:26:48.674Z,1.48
2022-10-19T21:29:17.207Z,1.02
2022-10-19T21:31:49.695Z,2.50
2022-10-19T21:34:20.179Z,1.33
2022-10-19T21:36:47.837Z,1.58
2022-10-19T21:39:15.343Z,1.60
2022-10-19T21:41:43.080Z,1.20
2022-10-19T21:44:10.506Z,1.40
2022-10-19T21:46:37.951Z,1.17
2022-10-19T21:49:05.689Z,1.23
2022-10-19T21:51:42.647Z,0.88
2022-10-19T21:54:15.466Z,0.90
2022-10-19T21:56:43.646Z,1.17
2022-10-19T21:59:12.178Z,1.20
2022-10-19T22:01:41.451Z,2.42
2022-10-19T22:04:14.654Z,0.98
2022-10-19T22:06:42.794Z,0.98
2022-10-19T22:09:13.401Z,1.37
2022-10-19T22:11:41.186Z,0.88
2022-10-19T22:14:10.610Z,1.73
2022-10-19T22:16:39.841Z,0.88
2022-10-19T22:19:07.361Z,1.58
2022-10-19T22:21:35.404Z,1.58
2022-10-19T22:24:09.265Z,0.85
2022-10-19T22:26:39.592Z,0.80
2022-10-19T22:29:07.906Z,1.20
2022-10-19T22:31:36.266Z,1.37
2022-10-19T22:34:10.054Z,1.12
2022-10-19T22:36:38.049Z,1.10
2022-10-19T22:39:06.192Z,0.85
2022-10-19T22:41:33.721Z,1.60
2022-10-19T22:44:01.545Z,1.12
2022-10-19T22:46:29.002Z,1.95
2022-10-19T22:48:56.590Z,1.25
2022-10-19T22:51:24.644Z,1.55
2022-10-19T22:53:52.064Z,1.58
2022-10-19T22:56:19.530Z,0.95
2022-10-19T22:58:47.236Z,0.93
2022-10-19T23:01:16.158Z,1.35
2022-10-19T23:03:44.012Z,1.37
2022-10-19T23:06:14.446Z,1.15
2022-10-19T23:08:43.317Z,1.23
2022-10-19T23:11:11.402Z,0.70
2022-10-19T23:13:39.666Z,1.50
2022-10-19T23:16:07.910Z,1.30
2022-10-19T23:18:37.813Z,1.58
2022-10-19T23:21:08.154Z,0.52
2022-10-19T23:23:36.921Z,0.98
2022-10-19T23:26:08.902Z,1.85
2022-10-19T23:28:38.781Z,1.23
2022-10-19T23:31:10.160Z,0.95
2022-10-19T23:33:37.638Z,1.37
2022-10-19T23:36:10.302Z,0.85
2022-10-19T23:38:38.123Z,2.05
2022-10-19T23:41:05.789Z,1.05
2022-10-19T23:43:33.402Z,1.17
2022-10-19T23:46:01.164Z,1.17
2022-10-19T23:48:28.671Z,0.95
2022-10-19T23:51:04.234Z,1.25
2022-10-19T23:53:35.714Z,1.15
2022-10-19T23:56:08.788Z,0.62
2022-10-19T23:58:36.594Z,0.90
